createdAt,value
2022-11-17T00:01:21.852Z,5.57
2022-11-17T00:03:49.480Z,6.07
2022-11-17T00:06:17.502Z,5.80
2022-11-17T00:08:43.965Z,5.18
2022-11-17T00:11:10.541Z,6.30
2022-11-17T00:13:55.362Z,5.90
2022-11-17T00:16:22.308Z,6.00
2022-11-17T00:19:07.440Z,6.18
2022-11-17T00:21:34.907Z,5.50
2022-11-17T00:24:01.521Z,6.20
2022-11-17T00:26:30.811Z,7.20
2022-11-17T00:29:01.708Z,6.93
2022-11-17T00:31:48.700Z,6.68
2022-11-17T00:34:20.339Z,5.80
2022-11-17T00:36:49.181Z,6.82
2022-11-17T00:39:17.050Z,8.07
2022-11-17T00:41:43.614Z,7.20
2022-11-17T00:44:10.750Z,7.20
2022-11-17T00:46:38.327Z,7.20
2022-11-17T00:49:06.348Z,7.15
2022-11-17T00:51:33.331Z,7.07
2022-11-17T00:54:00.387Z,7.70
2022-11-17T00:56:27.654Z,7.88
2022-11-17T00:58:54.631Z,7.95
2022-11-17T01:01:21.661Z,7.35
2022-11-17T01:03:48.515Z,7.18
2022-11-17T01:06:17.865Z,7.63
2022-11-17T01:08:45.010Z,7.90
2022-11-17T01:11:17.318Z,7.43
2022-11-17T01:13:46.043Z,7.18
2022-11-17T01:18:40.743Z,7.60
2022-11-17T01:21:10.374Z,6.65
2022-11-17T01:23:41.784Z,6.90
2022-11-17T01:26:10.865Z,8.15
2022-11-17T01:28:38.291Z,7.32
2022-11-17T01:31:12.426Z,7.80
2022-11-17T01:33:39.801Z,8.40
2022-11-17T01:36:11.476Z,7.93
2022-11-17T01:38:38.159Z,7.30
2022-11-17T01:41:06.672Z,7.82
2022-11-17T01:43:57.732Z,7.85
2022-11-17T01:46:36.959Z,7.20
2022-11-17T01:49:13.064Z,8.25
2022-11-17T01:51:44.223Z,7.38
2022-11-17T01:54:13.129Z,8.95
2022-11-17T01:56:44.579Z,8.20
2022-11-17T01:59:27.938Z,8.15
2022-11-17T02:01:55.909Z,8.32
2022-11-17T02:04:26.014Z,7.85
2022-11-17T02:06:57.142Z,8.40
2022-11-17T02:09:24.584Z,8.23
2022-11-17T02:11:51.062Z,8.13
2022-11-17T02:14:18.012Z,7.80
2022-11-17T02:16:44.453Z,8.07
2022-11-17T02:19:14.301Z,7.90
2022-11-17T02:22:08.785Z,7.93
2022-11-17T02:27:29.425Z,7.28
2022-11-17T02:30:20.389Z,7.55
2022-11-17T02:33:09.756Z,7.60
2022-11-17T02:35:56.653Z,8.55
2022-11-17T02:38:35.330Z,8.20
2022-11-17T02:41:07.027Z,7.88
2022-11-17T02:44:05.650Z,8.55
2022-11-17T02:46:59.978Z,8.52
2022-11-17T02:49:31.410Z,7.70
2022-11-17T02:51:59.398Z,7.97
2022-11-17T02:54:29.210Z,8.07
2022-11-17T02:56:55.650Z,8.50
2022-11-17T02:59:28.157Z,8.40
2022-11-17T03:02:33.188Z,8.23
2022-11-17T03:05:17.008Z,9.15
2022-11-17T03:07:58.430Z,7.60
2022-11-17T03:10:51.204Z,7.07
2022-11-17T03:13:48.129Z,7.07
2022-11-17T03:16:33.309Z,6.93
2022-11-17T03:19:41.506Z,7.10
2022-11-17T03:22:13.101Z,7.18
2022-11-17T03:24:43.962Z,6.72
2022-11-17T03:27:18.841Z,6.97
2022-11-17T03:29:50.539Z,7.38
2022-11-17T03:32:18.606Z,7.25
2022-11-17T03:34:51.854Z,6.55
2022-11-17T03:37:21.184Z,7.80
2022-11-17T03:39:55.170Z,6.32
2022-11-17T03:42:25.997Z,6.30
2022-11-17T03:44:57.294Z,6.57
2022-11-17T03:47:27.166Z,6.88
2022-11-17T03:50:02.599Z,7.00
2022-11-17T03:52:30.496Z,7.20
2022-11-17T03:54:57.472Z,7.18
2022-11-17T03:57:30.762Z,5.97
2022-11-17T04:00:00.835Z,6.60
2022-11-17T04:02:28.092Z,6.07
2022-11-17T04:05:06.676Z,6.60
2022-11-17T04:07:35.744Z,6.75
2022-11-17T04:10:03.480Z,6.32
2022-11-17T04:12:48.623Z,6.50
2022-11-17T04:15:34.048Z,6.80
2022-11-17T04:18:00.711Z,7.00
2022-11-17T04:20:27.155Z,6.50
2022-11-17T04:23:08.637Z,6.93
2022-11-17T04:26:05.307Z,6.43
2022-11-17T04:28:39.787Z,6.40
2022-11-17T04:31:14.954Z,7.28
2022-11-17T04:36:11.804Z,5.82
2022-11-17T04:38:41.682Z,6.60
2022-11-17T04:41:31.256Z,5.60
2022-11-17T04:43:57.802Z,6.55
2022-11-17T04:46:25.375Z,6.43
2022-11-17T04:48:56.790Z,6.60
2022-11-17T04:51:24.466Z,6.50
2022-11-17T04:53:51.685Z,5.93
2022-11-17T04:56:19.929Z,6.05
2022-11-17T04:58:46.864Z,6.63
2022-11-17T05:01:13.745Z,6.30
2022-11-17T05:03:44.810Z,6.30
2022-11-17T05:06:19.214Z,5.75
2022-11-17T05:08:46.574Z,5.75
2022-11-17T05:11:33.265Z,5.80
2022-11-17T05:14:00.197Z,5.35
2022-11-17T05:16:45.687Z,5.60
2022-11-17T05:19:18.252Z,5.43
2022-11-17T05:21:44.773Z,5.32
2022-11-17T05:24:20.445Z,5.47
2022-11-17T05:26:48.198Z,5.63
2022-11-17T05:29:17.633Z,5.70
2022-11-17T05:31:47.480Z,5.28
2022-11-17T05:34:17.264Z,5.57
2022-11-17T05:36:44.111Z,5.30
2022-11-17T05:39:10.778Z,5.88
2022-11-17T05:41:37.263Z,5.03
2022-11-17T05:44:04.543Z,5.05
2022-11-17T05:46:30.963Z,5.10
2022-11-17T05:48:58.332Z,5.45
2022-11-17T05:51:25.074Z,5.32
2022-11-17T05:53:54.910Z,6.00
2022-11-17T05:56:55.300Z,4.70
2022-11-17T05:59:35.962Z,4.97
2022-11-17T06:02:24.682Z,5.15
2022-11-17T06:04:51.591Z,4.80
2022-11-17T06:07:19.495Z,5.00
2022-11-17T06:09:46.691Z,5.13
2022-11-17T06:12:13.241Z,4.85
2022-11-17T06:14:39.854Z,5.25
2022-11-17T06:17:20.591Z,5.47
2022-11-17T06:19:53.806Z,5.63
2022-11-17T06:22:20.921Z,5.18
2022-11-17T06:24:47.583Z,5.43
2022-11-17T06:27:16.413Z,5.10
2022-11-17T06:29:45.078Z,5.53
2022-11-17T06:32:17.168Z,5.15
2022-11-17T06:34:49.167Z,5.28
2022-11-17T06:37:18.929Z,5.70
2022-11-17T06:39:45.367Z,5.47
2022-11-17T06:42:11.932Z,5.95
2022-11-17T06:44:38.327Z,5.75
2022-11-17T06:47:05.866Z,5.85
2022-11-17T06:49:32.247Z,5.88
2022-11-17T06:52:01.719Z,6.15
2022-11-17T06:54:28.094Z,5.45
2022-11-17T06:56:55.333Z,6.47
2022-11-17T06:59:21.870Z,5.93
2022-11-17T07:01:48.277Z,5.47
2022-11-17T07:04:14.745Z,5.55
2022-11-17T07:06:44.118Z,6.15
2022-11-17T07:09:13.597Z,6.47
2022-11-17T07:11:42.930Z,6.15
2022-11-17T07:14:09.376Z,6.22
2022-11-17T07:16:35.745Z,6.93
2022-11-17T07:19:03.705Z,6.30
2022-11-17T07:21:30.693Z,6.68
2022-11-17T07:23:57.240Z,6.70
2022-11-17T07:26:23.611Z,6.43
2022-11-17T07:28:50.226Z,6.00
2022-11-17T07:31:16.668Z,6.57
2022-11-17T07:33:43.116Z,6.45
2022-11-17T07:36:14.644Z,6.30
2022-11-17T07:38:41.419Z,6.55
2022-11-17T07:41:10.017Z,6.70
2022-11-17T07:43:36.959Z,6.68
2022-11-17T07:46:08.692Z,6.60
2022-11-17T07:48:35.549Z,6.47
2022-11-17T07:51:07.467Z,6.57
2022-11-17T07:53:35.117Z,6.72
2022-11-17T07:56:07.109Z,6.40
2022-11-17T07:58:33.890Z,6.85
2022-11-17T08:01:05.383Z,6.97
2022-11-17T08:03:31.870Z,6.25
2022-11-17T08:06:05.316Z,6.72
2022-11-17T08:08:32.338Z,6.75
2022-11-17T08:11:10.486Z,6.60
2022-11-17T08:13:39.491Z,7.18
2022-11-17T08:16:07.258Z,6.88
2022-11-17T08:18:34.134Z,6.72
2022-11-17T08:21:04.417Z,6.35
2022-11-17T08:23:31.716Z,6.05
2022-11-17T08:25:58.481Z,6.15
2022-11-17T08:28:27.471Z,6.10
2022-11-17T08:30:54.036Z,5.45
2022-11-17T08:33:20.773Z,5.72
2022-11-17T08:35:49.505Z,5.40
2022-11-17T08:38:15.900Z,5.57
2022-11-17T08:40:42.579Z,5.10
2022-11-17T08:43:08.978Z,5.30
2022-11-17T08:45:35.427Z,4.90
2022-11-17T08:48:04.296Z,5.00
2022-11-17T08:50:33.357Z,4.65
2022-11-17T08:52:59.758Z,4.50
2022-11-17T08:55:26.423Z,4.70
2022-11-17T08:57:52.969Z,5.18
2022-11-17T09:00:20.791Z,4.75
2022-11-17T09:02:47.444Z,5.40
2022-11-17T09:05:13.918Z,4.63
2022-11-17T09:07:40.351Z,4.35
2022-11-17T09:10:09.394Z,5.22
2022-11-17T09:12:35.771Z,5.28
2022-11-17T09:15:02.243Z,4.78
2022-11-17T09:17:28.674Z,5.35
2022-11-17T09:19:55.153Z,5.35
2022-11-17T09:22:21.720Z,4.82
2022-11-17T09:24:50.901Z,4.30
2022-11-17T09:27:17.404Z,4.75
2022-11-17T09:29:43.973Z,4.53
2022-11-17T09:32:10.393Z,4.43
2022-11-17T09:34:36.865Z,4.22
2022-11-17T09:37:03.305Z,4.28
2022-11-17T09:39:29.861Z,4.22
2022-11-17T09:41:57.306Z,3.85
2022-11-17T09:44:39.628Z,4.35
2022-11-17T09:47:30.282Z,5.25
2022-11-17T09:50:16.101Z,4.93
2022-11-17T09:53:20.189Z,5.10
2022-11-17T09:55:50.916Z,4.82
2022-11-17T09:58:49.473Z,4.75
2022-11-17T10:01:20.671Z,4.45
2022-11-17T10:03:49.342Z,4.32
2022-11-17T10:06:21.678Z,4.47
2022-11-17T10:09:22.464Z,4.28
2022-11-17T10:11:53.892Z,4.00
2022-11-17T10:19:21.219Z,3.78
2022-11-17T10:21:52.969Z,4.03
2022-11-17T10:24:34.903Z,3.60
2022-11-17T10:27:03.323Z,3.85
2022-11-17T10:29:30.093Z,3.35
2022-11-17T10:31:57.431Z,3.70
2022-11-17T10:34:41.141Z,4.00
2022-11-17T10:37:28.987Z,3.72
2022-11-17T10:40:25.099Z,3.33
2022-11-17T10:43:19.181Z,3.28
2022-11-17T10:45:48.707Z,4.25
2022-11-17T10:48:28.363Z,3.50
2022-11-17T10:51:03.737Z,3.22
2022-11-17T10:53:42.990Z,3.15
2022-11-17T10:56:16.961Z,3.10
2022-11-17T10:59:16.688Z,3.60
2022-11-17T11:01:45.682Z,3.05
2022-11-17T11:04:30.637Z,3.28
2022-11-17T11:07:06.535Z,3.10
2022-11-17T11:09:34.527Z,3.00
2022-11-17T11:12:04.653Z,3.15
2022-11-17T11:14:42.554Z,2.92
2022-11-17T11:17:12.246Z,2.50
2022-11-17T11:19:41.246Z,2.80
2022-11-17T11:22:28.994Z,3.10
2022-11-17T11:28:05.226Z,3.40
2022-11-17T11:30:38.316Z,2.80
2022-11-17T11:33:30.137Z,2.70
2022-11-17T11:36:11.327Z,3.15
2022-11-17T11:38:58.986Z,2.72
2022-11-17T11:41:44.391Z,2.60
2022-11-17T11:44:35.773Z,3.03
2022-11-17T11:47:33.562Z,2.78
2022-11-17T11:50:19.275Z,2.78
2022-11-17T11:52:51.318Z,2.65
2022-11-17T11:55:22.210Z,2.83
2022-11-17T11:57:54.870Z,2.72
2022-11-17T12:00:21.478Z,2.88
2022-11-17T12:02:58.571Z,3.10
2022-11-17T12:05:41.982Z,2.60
2022-11-17T12:08:29.266Z,2.75
2022-11-17T12:11:25.331Z,2.70
2022-11-17T12:13:54.523Z,2.25
2022-11-17T12:16:33.280Z,2.63
2022-11-17T12:19:00.001Z,2.35
2022-11-17T12:21:27.937Z,2.50
2022-11-17T12:24:03.445Z,1.92
2022-11-17T12:26:31.804Z,2.42
2022-11-17T12:29:20.248Z,2.13
2022-11-17T12:31:47.434Z,2.38
2022-11-17T12:34:24.530Z,2.60
2022-11-17T12:37:15.140Z,2.60
2022-11-17T12:39:59.960Z,2.40
2022-11-17T12:42:27.371Z,2.25
2022-11-17T12:45:00.152Z,1.75
2022-11-17T12:47:32.346Z,3.35
2022-11-17T12:50:17.586Z,2.10
2022-11-17T12:52:55.936Z,3.40
2022-11-17T12:55:28.736Z,7.35
2022-11-17T12:58:09.065Z,3.38
2022-11-17T13:01:09.209Z,4.47
2022-11-17T13:03:52.001Z,2.47
2022-11-17T13:06:34.912Z,2.35
2022-11-17T13:09:10.438Z,2.60
2022-11-17T13:11:36.857Z,2.17
2022-11-17T13:14:15.772Z,1.90
2022-11-17T13:16:50.861Z,2.22
2022-11-17T13:19:34.152Z,5.47
2022-11-17T13:22:13.741Z,3.67
2022-11-17T13:24:42.636Z,4.95
2022-11-17T13:27:29.737Z,2.85
2022-11-17T13:30:32.536Z,1.23
2022-11-17T13:33:02.168Z,5.47
2022-11-17T13:35:32.743Z,4.43
2022-11-17T13:38:11.316Z,4.30
2022-11-17T13:40:40.632Z,2.15
2022-11-17T13:43:12.082Z,1.05
2022-11-17T13:45:38.676Z,0.68
2022-11-17T13:48:05.222Z,0.40
2022-11-17T13:50:31.557Z,0.70
2022-11-17T13:53:24.594Z,1.10
2022-11-17T13:55:52.371Z,0.82
2022-11-17T13:58:49.721Z,0.57
2022-11-17T14:01:22.961Z,1.00
2022-11-17T14:03:49.954Z,1.10
2022-11-17T14:06:16.346Z,1.02
2022-11-17T14:09:01.302Z,1.20
2022-11-17T14:11:27.780Z,1.08
2022-11-17T14:14:00.997Z,1.10
2022-11-17T14:16:39.271Z,0.90
2022-11-17T14:19:14.930Z,1.13
2022-11-17T14:22:09.398Z,1.00
2022-11-17T14:24:36.758Z,0.88
2022-11-17T14:27:12.633Z,1.17
2022-11-17T14:29:39.024Z,1.08
2022-11-17T14:32:05.529Z,1.20
2022-11-17T14:34:31.891Z,0.90
2022-11-17T14:36:58.344Z,1.00
2022-11-17T14:39:24.765Z,1.00
2022-11-17T14:41:51.209Z,0.75
2022-11-17T14:44:17.603Z,0.75
2022-11-17T14:46:44.055Z,1.30
2022-11-17T14:49:10.583Z,1.60
2022-11-17T14:51:36.989Z,1.80
2022-11-17T14:54:03.894Z,1.50
2022-11-17T14:56:30.460Z,1.60
2022-11-17T14:59:00.526Z,1.70
2022-11-17T15:01:30.958Z,1.63
2022-11-17T15:04:20.605Z,1.77
2022-11-17T15:06:49.302Z,1.90
2022-11-17T15:09:16.431Z,2.47
2022-11-17T15:11:42.885Z,2.80
2022-11-17T15:14:10.805Z,3.28
2022-11-17T15:16:37.218Z,3.85
2022-11-17T15:19:03.644Z,5.15
2022-11-17T15:21:30.039Z,3.40
2022-11-17T15:23:56.480Z,2.70
2022-11-17T15:26:23.757Z,5.95
2022-11-17T15:28:50.180Z,4.10
2022-11-17T15:31:18.628Z,2.53
2022-11-17T15:33:47.264Z,1.90
2022-11-17T15:36:16.496Z,2.45
2022-11-17T15:38:43.337Z,2.13
2022-11-17T15:41:14.118Z,2.70
2022-11-17T15:43:43.029Z,2.80
2022-11-17T15:46:12.045Z,2.00
2022-11-17T15:48:42.209Z,2.53
2022-11-17T15:51:17.346Z,3.78
2022-11-17T15:53:45.319Z,2.90
2022-11-17T15:56:23.571Z,7.10
2022-11-17T15:58:56.702Z,5.70
2022-11-17T16:01:28.886Z,8.40
2022-11-17T16:04:05.202Z,6.90
2022-11-17T16:06:33.296Z,5.03
2022-11-17T16:08:59.866Z,4.35
2022-11-17T16:11:27.236Z,4.60
2022-11-17T16:13:58.266Z,4.72
2022-11-17T16:16:27.196Z,4.10
2022-11-17T16:18:54.661Z,5.13
2022-11-17T16:21:21.200Z,4.53
2022-11-17T16:23:55.837Z,5.10
2022-11-17T16:26:24.399Z,4.30
2022-11-17T16:31:24.462Z,2.90
2022-11-17T16:34:00.063Z,2.60
2022-11-17T16:36:35.552Z,1.83
2022-11-17T16:39:03.379Z,1.90
2022-11-17T16:41:35.320Z,2.60
2022-11-17T16:44:03.274Z,1.42
2022-11-17T16:46:31.244Z,1.30
2022-11-17T16:49:02.214Z,2.00
2022-11-17T16:51:28.847Z,2.22
2022-11-17T16:53:57.619Z,3.33
2022-11-17T16:56:24.106Z,3.85
2022-11-17T16:58:51.085Z,3.10
2022-11-17T17:01:20.754Z,2.60
2022-11-17T17:03:47.251Z,2.15
2022-11-17T17:06:16.466Z,3.65
2022-11-17T17:08:43.249Z,4.78
2022-11-17T17:11:15.810Z,6.10
2022-11-17T17:13:42.762Z,5.32
2022-11-17T17:16:12.534Z,3.63
2022-11-17T17:18:39.209Z,2.53
2022-11-17T17:21:06.800Z,2.88
2022-11-17T17:23:34.852Z,3.55
2022-11-17T17:26:17.365Z,4.82
2022-11-17T17:28:48.475Z,4.35
2022-11-17T17:31:21.239Z,3.80
2022-11-17T17:33:48.799Z,4.40
2022-11-17T17:36:17.761Z,4.78
2022-11-17T17:38:46.809Z,5.15
2022-11-17T17:41:20.132Z,5.32
2022-11-17T17:43:47.954Z,4.50
2022-11-17T17:46:17.359Z,5.03
2022-11-17T17:48:44.999Z,4.00
2022-11-17T17:51:13.809Z,3.97
2022-11-17T17:53:40.917Z,5.07
2022-11-17T17:56:09.774Z,5.68
2022-11-17T17:58:41.097Z,5.95
2022-11-17T18:01:12.001Z,5.57
2022-11-17T18:03:39.699Z,4.38
2022-11-17T18:06:07.513Z,4.60
2022-11-17T18:08:35.487Z,3.15
2022-11-17T18:11:12.140Z,2.88
2022-11-17T18:13:41.615Z,3.22
2022-11-17T18:16:13.426Z,3.70
2022-11-17T18:18:40.587Z,2.95
2022-11-17T18:21:09.969Z,2.70
2022-11-17T18:23:37.453Z,2.20
2022-11-17T18:26:12.263Z,2.58
2022-11-17T18:28:39.937Z,2.67
2022-11-17T18:31:07.456Z,2.10
2022-11-17T18:33:34.677Z,1.95
2022-11-17T18:36:08.385Z,2.30
2022-11-17T18:38:35.890Z,2.50
2022-11-17T18:41:13.869Z,2.53
2022-11-17T18:43:40.449Z,3.90
2022-11-17T18:46:10.245Z,3.05
2022-11-17T18:48:38.952Z,2.53
2022-11-17T18:51:21.469Z,2.90
2022-11-17T18:53:49.714Z,3.17
2022-11-17T18:56:21.375Z,2.88
2022-11-17T18:58:47.919Z,2.20
2022-11-17T19:01:17.519Z,2.67
2022-11-17T19:03:46.183Z,6.85
2022-11-17T19:06:14.128Z,9.00
2022-11-17T19:08:40.901Z,6.68
2022-11-17T19:11:08.519Z,7.35
2022-11-17T19:13:37.490Z,6.60
2022-11-17T19:16:25.954Z,4.10
2022-11-17T19:18:54.547Z,4.10
2022-11-17T19:23:52.088Z,5.88
2022-11-17T19:26:23.932Z,6.43
2022-11-17T19:28:54.106Z,5.93
2022-11-17T19:31:20.641Z,6.18
2022-11-17T19:33:48.281Z,5.93
2022-11-17T19:36:29.321Z,4.43
2022-11-17T19:38:57.567Z,5.90
2022-11-17T19:41:31.967Z,5.82
2022-11-17T19:44:00.674Z,5.30
2022-11-17T19:46:28.500Z,4.82
2022-11-17T19:48:56.344Z,2.30
2022-11-17T19:51:24.250Z,3.58
2022-11-17T19:53:52.850Z,5.10
2022-11-17T19:58:46.781Z,7.07
2022-11-17T20:01:15.016Z,8.63
2022-11-17T20:03:42.047Z,3.58
2022-11-17T20:06:10.505Z,4.97
2022-11-17T20:08:37.348Z,4.53
2022-11-17T20:11:08.460Z,5.05
2022-11-17T20:13:36.039Z,3.63
2022-11-17T20:16:07.509Z,3.55
2022-11-17T20:18:38.025Z,3.60
2022-11-17T20:21:05.931Z,3.08
2022-11-17T20:23:37.300Z,3.72
2022-11-17T20:26:06.271Z,3.25
2022-11-17T20:28:34.834Z,3.10
2022-11-17T20:31:22.528Z,3.00
2022-11-17T20:33:49.095Z,3.47
2022-11-17T20:36:18.551Z,3.17
2022-11-17T20:38:45.577Z,3.70
2022-11-17T20:41:11.981Z,3.67
2022-11-17T20:43:38.481Z,3.42
2022-11-17T20:46:05.113Z,3.40
2022-11-17T20:48:34.096Z,3.20
2022-11-17T20:51:00.568Z,3.35
2022-11-17T20:53:30.256Z,3.70
2022-11-17T20:56:00.549Z,3.40
2022-11-17T20:58:28.326Z,3.50
2022-11-17T21:00:55.820Z,3.53
2022-11-17T21:03:23.659Z,3.70
2022-11-17T21:06:05.049Z,3.45
2022-11-17T21:08:33.990Z,4.40
2022-11-17T21:11:02.404Z,4.97
2022-11-17T21:13:30.392Z,4.25
2022-11-17T21:16:14.727Z,3.97
2022-11-17T21:18:48.251Z,4.30
2022-11-17T21:21:17.808Z,4.10
2022-11-17T21:23:44.262Z,4.18
2022-11-17T21:26:17.107Z,4.40
2022-11-17T21:28:43.626Z,3.60
2022-11-17T21:31:12.909Z,3.80
2022-11-17T21:33:40.024Z,3.80
2022-11-17T21:36:12.209Z,3.40
2022-11-17T21:38:43.044Z,3.60
2022-11-17T21:41:31.673Z,3.67
2022-11-17T21:44:00.106Z,4.15
2022-11-17T21:46:31.965Z,3.75
2022-11-17T21:49:01.912Z,4.18
2022-11-17T21:51:33.303Z,4.18
2022-11-17T21:54:07.794Z,4.32
2022-11-17T21:56:34.276Z,3.95
2022-11-17T21:59:03.384Z,4.03
2022-11-17T22:01:30.873Z,3.95
2022-11-17T22:03:57.396Z,3.75
2022-11-17T22:06:26.027Z,3.75
2022-11-17T22:11:37.773Z,3.78
2022-11-17T22:14:15.848Z,3.70
2022-11-17T22:16:46.159Z,3.40
2022-11-17T22:19:14.472Z,3.92
2022-11-17T22:21:41.987Z,3.90
2022-11-17T22:24:10.487Z,3.30
2022-11-17T22:26:38.472Z,4.03
2022-11-17T22:29:06.549Z,3.30
2022-11-17T22:31:32.956Z,3.47
2022-11-17T22:33:59.515Z,3.80
2022-11-17T22:36:25.922Z,3.30
2022-11-17T22:38:52.967Z,3.83
2022-11-17T22:41:21.204Z,3.17
2022-11-17T22:43:51.873Z,3.63
2022-11-17T22:46:19.787Z,3.30
2022-11-17T22:48:46.461Z,3.00
2022-11-17T22:51:13.503Z,2.80
2022-11-17T22:53:40.063Z,2.72
2022-11-17T22:56:08.142Z,2.72
2022-11-17T22:58:34.520Z,3.05
2022-11-17T23:01:07.882Z,2.83
2022-11-17T23:03:34.479Z,3.17
2022-11-17T23:06:04.951Z,3.38
2022-11-17T23:08:32.237Z,3.63
2022-11-17T23:11:34.837Z,4.05
2022-11-17T23:13:50.799Z,5.30
2022-11-17T23:16:17.875Z,4.50
2022-11-17T23:18:44.320Z,3.25
2022-11-17T23:21:11.039Z,3.20
2022-11-17T23:23:39.221Z,3.10
2022-11-17T23:26:08.650Z,2.95
2022-11-17T23:28:35.675Z,3.55
2022-11-17T23:31:03.773Z,3.90
2022-11-17T23:33:41.802Z,3.53
2022-11-17T23:36:20.008Z,4.10
2022-11-17T23:38:47.224Z,3.38
2022-11-17T23:41:15.622Z,3.30
2022-11-17T23:43:42.373Z,2.90
2022-11-17T23:46:14.530Z,3.50
2022-11-17T23:48:41.929Z,3.22
2022-11-17T23:51:19.794Z,2.95
2022-11-17T23:53:46.868Z,3.47
2022-11-17T23:56:13.916Z,3.30
2022-11-17T23:58:41.485Z,3.13
